sensor_id;sensor_type;location;lat;lon;timestamp;P1;durP1;ratioP1;P2;durP2;ratioP2
15408;SDS011;7803;48.130;13.788;2023-02-23T00:00:20;7.35;;;6.65;;
15408;SDS011;7803;48.130;13.788;2023-02-23T00:03:27;7.55;;;6.75;;
15408;SDS011;7803;48.130;13.788;2023-02-23T00:06:30;7.32;;;6.63;;
15408;SDS011;7803;48.130;13.788;2023-02-23T00:09:34;7.45;;;6.70;;
15408;SDS011;7803;48.130;13.788;2023-02-23T00:12:36;7.70;;;7.00;;
15408;SDS011;7803;48.130;13.788;2023-02-23T00:15:40;7.15;;;6.45;;
15408;SDS011;7803;48.130;13.788;2023-02-23T00:18:42;7.45;;;6.75;;
15408;SDS011;7803;48.130;13.788;2023-02-23T00:21:47;8.13;;;7.38;;
15408;SDS011;7803;48.130;13.788;2023-02-23T00:24:50;7.72;;;7.03;;
15408;SDS011;7803;48.130;13.788;2023-02-23T00:27:52;7.70;;;6.97;;
15408;SDS011;7803;48.130;13.788;2023-02-23T00:30:55;7.53;;;6.82;;
15408;SDS011;7803;48.130;13.788;2023-02-23T00:33:58;7.53;;;6.82;;
15408;SDS011;7803;48.130;13.788;2023-02-23T00:37:02;7.65;;;6.95;;
15408;SDS011;7803;48.130;13.788;2023-02-23T00:40:04;7.25;;;6.55;;
15408;SDS011;7803;48.130;13.788;2023-02-23T00:43:13;7.20;;;6.50;;
15408;SDS011;7803;48.130;13.788;2023-02-23T00:46:19;7.30;;;6.65;;
15408;SDS011;7803;48.130;13.788;2023-02-23T00:49:22;7.38;;;6.68;;
15408;SDS011;7803;48.130;13.788;2023-02-23T00:52:24;7.43;;;6.82;;
15408;SDS011;7803;48.130;13.788;2023-02-23T00:55:28;7.35;;;6.65;;
15408;SDS011;7803;48.130;13.788;2023-02-23T00:58:30;7.20;;;6.50;;
15408;SDS011;7803;48.130;13.788;2023-02-23T01:01:34;7.10;;;6.47;;
15408;SDS011;7803;48.130;13.788;2023-02-23T01:04:37;6.93;;;6.32;;
15408;SDS011;7803;48.130;13.788;2023-02-23T01:07:39;7.00;;;6.38;;
15408;SDS011;7803;48.130;13.788;2023-02-23T01:10:42;7.03;;;6.43;;
15408;SDS011;7803;48.130;13.788;2023-02-23T01:13:51;7.32;;;6.63;;
15408;SDS011;7803;48.130;13.788;2023-02-23T01:16:56;6.78;;;6.18;;
15408;SDS011;7803;48.130;13.788;2023-02-23T01:19:58;7.03;;;6.43;;
15408;SDS011;7803;48.130;13.788;2023-02-23T01:23:01;7.05;;;6.35;;
15408;SDS011;7803;48.130;13.788;2023-02-23T01:26:04;7.30;;;6.60;;
15408;SDS011;7803;48.130;13.788;2023-02-23T01:29:07;7.32;;;6.63;;
15408;SDS011;7803;48.130;13.788;2023-02-23T01:32:11;6.70;;;6.10;;
15408;SDS011;7803;48.130;13.788;2023-02-23T01:35:13;7.10;;;6.40;;
15408;SDS011;7803;48.130;13.788;2023-02-23T01:38:16;7.10;;;6.40;;
15408;SDS011;7803;48.130;13.788;2023-02-23T01:41:18;6.93;;;6.28;;
15408;SDS011;7803;48.130;13.788;2023-02-23T01:48:03;6.60;;;6.00;;
15408;SDS011;7803;48.130;13.788;2023-02-23T01:51:08;6.30;;;5.80;;
15408;SDS011;7803;48.130;13.788;2023-02-23T01:54:14;6.82;;;6.22;;
15408;SDS011;7803;48.130;13.788;2023-02-23T01:57:20;6.72;;;6.13;;
15408;SDS011;7803;48.130;13.788;2023-02-23T02:00:26;6.68;;;6.07;;
15408;SDS011;7803;48.130;13.788;2023-02-23T02:03:33;6.40;;;5.80;;
15408;SDS011;7803;48.130;13.788;2023-02-23T02:06:38;6.68;;;6.07;;
15408;SDS011;7803;48.130;13.788;2023-02-23T02:09:41;7.22;;;6.53;;
15408;SDS011;7803;48.130;13.788;2023-02-23T02:13:04;6.50;;;5.90;;
15408;SDS011;7803;48.130;13.788;2023-02-23T02:27:19;7.15;;;6.45;;
15408;SDS011;7803;48.130;13.788;2023-02-23T02:37:42;7.85;;;7.05;;
15408;SDS011;7803;48.130;13.788;2023-02-23T02:40:50;7.40;;;6.70;;
15408;SDS011;7803;48.130;13.788;2023-02-23T02:43:57;7.40;;;6.70;;
15408;SDS011;7803;48.130;13.788;2023-02-23T02:47:05;7.60;;;6.90;;
15408;SDS011;7803;48.130;13.788;2023-02-23T02:50:13;7.57;;;6.88;;
15408;SDS011;7803;48.130;13.788;2023-02-23T02:53:21;7.90;;;7.10;;
15408;SDS011;7803;48.130;13.788;2023-02-23T02:56:29;7.95;;;7.15;;
15408;SDS011;7803;48.130;13.788;2023-02-23T02:59:40;8.00;;;7.20;;
15408;SDS011;7803;48.130;13.788;2023-02-23T03:03:00;8.45;;;7.65;;
15408;SDS011;7803;48.130;13.788;2023-02-23T03:06:21;7.70;;;7.00;;
15408;SDS011;7803;48.130;13.788;2023-02-23T03:09:46;8.98;;;8.00;;
15408;SDS011;7803;48.130;13.788;2023-02-23T03:13:15;8.30;;;7.50;;
15408;SDS011;7803;48.130;13.788;2023-02-23T03:16:42;8.45;;;7.65;;
15408;SDS011;7803;48.130;13.788;2023-02-23T03:20:16;8.50;;;7.70;;
15408;SDS011;7803;48.130;13.788;2023-02-23T03:23:45;8.02;;;7.30;;
15408;SDS011;7803;48.130;13.788;2023-02-23T03:27:16;8.55;;;7.75;;
15408;SDS011;7803;48.130;13.788;2023-02-23T03:30:44;8.40;;;7.60;;
15408;SDS011;7803;48.130;13.788;2023-02-23T03:34:08;8.80;;;8.00;;
15408;SDS011;7803;48.130;13.788;2023-02-23T03:37:33;8.18;;;7.47;;
15408;SDS011;7803;48.130;13.788;2023-02-23T03:40:58;8.45;;;7.65;;
15408;SDS011;7803;48.130;13.788;2023-02-23T03:44:21;8.90;;;8.10;;
15408;SDS011;7803;48.130;13.788;2023-02-23T03:47:45;9.05;;;8.15;;
15408;SDS011;7803;48.130;13.788;2023-02-23T03:51:06;8.63;;;7.82;;
15408;SDS011;7803;48.130;13.788;2023-02-23T03:54:29;9.18;;;8.27;;
15408;SDS011;7803;48.130;13.788;2023-02-23T03:57:54;8.90;;;8.10;;
15408;SDS011;7803;48.130;13.788;2023-02-23T04:01:18;8.82;;;7.97;;
15408;SDS011;7803;48.130;13.788;2023-02-23T04:04:39;8.68;;;7.88;;
15408;SDS011;7803;48.130;13.788;2023-02-23T04:08:00;8.63;;;7.82;;
15408;SDS011;7803;48.130;13.788;2023-02-23T04:11:23;9.77;;;8.77;;
15408;SDS011;7803;48.130;13.788;2023-02-23T04:14:50;9.23;;;8.32;;
15408;SDS011;7803;48.130;13.788;2023-02-23T04:17:58;9.90;;;8.65;;
15408;SDS011;7803;48.130;13.788;2023-02-23T04:21:00;8.52;;;7.72;;
15408;SDS011;7803;48.130;13.788;2023-02-23T04:24:03;8.93;;;8.05;;
15408;SDS011;7803;48.130;13.788;2023-02-23T04:27:05;8.45;;;7.55;;
15408;SDS011;7803;48.130;13.788;2023-02-23T04:30:08;9.18;;;8.27;;
15408;SDS011;7803;48.130;13.788;2023-02-23T04:33:13;8.77;;;7.97;;
15408;SDS011;7803;48.130;13.788;2023-02-23T04:36:16;8.23;;;7.45;;
15408;SDS011;7803;48.130;13.788;2023-02-23T04:39:18;8.60;;;7.80;;
15408;SDS011;7803;48.130;13.788;2023-02-23T04:42:20;8.65;;;7.85;;
15408;SDS011;7803;48.130;13.788;2023-02-23T04:45:22;8.98;;;8.07;;
15408;SDS011;7803;48.130;13.788;2023-02-23T04:48:27;8.68;;;7.78;;
15408;SDS011;7803;48.130;13.788;2023-02-23T04:51:29;8.30;;;7.50;;
15408;SDS011;7803;48.130;13.788;2023-02-23T04:54:34;9.77;;;8.50;;
15408;SDS011;7803;48.130;13.788;2023-02-23T04:57:38;8.68;;;7.88;;
15408;SDS011;7803;48.130;13.788;2023-02-23T05:00:40;9.63;;;8.25;;
15408;SDS011;7803;48.130;13.788;2023-02-23T05:03:44;8.50;;;7.70;;
15408;SDS011;7803;48.130;13.788;2023-02-23T05:06:46;8.77;;;7.90;;
15408;SDS011;7803;48.130;13.788;2023-02-23T05:09:48;8.73;;;7.82;;
15408;SDS011;7803;48.130;13.788;2023-02-23T05:12:50;8.30;;;7.50;;
15408;SDS011;7803;48.130;13.788;2023-02-23T05:15:55;8.23;;;7.43;;
15408;SDS011;7803;48.130;13.788;2023-02-23T05:18:59;7.55;;;6.85;;
15408;SDS011;7803;48.130;13.788;2023-02-23T05:22:01;8.73;;;7.82;;
15408;SDS011;7803;48.130;13.788;2023-02-23T05:25:03;8.30;;;7.50;;
15408;SDS011;7803;48.130;13.788;2023-02-23T05:28:07;7.88;;;7.18;;
15408;SDS011;7803;48.130;13.788;2023-02-23T05:31:09;7.50;;;6.80;;
15408;SDS011;7803;48.130;13.788;2023-02-23T05:34:13;7.63;;;6.93;;
15408;SDS011;7803;48.130;13.788;2023-02-23T05:37:15;8.07;;;7.28;;
15408;SDS011;7803;48.130;13.788;2023-02-23T05:40:18;8.48;;;7.68;;
15408;SDS011;7803;48.130;13.788;2023-02-23T05:43:20;7.50;;;6.80;;
15408;SDS011;7803;48.130;13.788;2023-02-23T05:46:23;7.68;;;6.97;;
15408;SDS011;7803;48.130;13.788;2023-02-23T05:49:28;8.02;;;7.22;;
15408;SDS011;7803;48.130;13.788;2023-02-23T05:52:30;7.47;;;6.78;;
15408;SDS011;7803;48.130;13.788;2023-02-23T05:55:32;7.55;;;6.85;;
15408;SDS011;7803;48.130;13.788;2023-02-23T05:58:36;7.32;;;6.72;;
15408;SDS011;7803;48.130;13.788;2023-02-23T06:01:38;8.07;;;7.28;;
15408;SDS011;7803;48.130;13.788;2023-02-23T06:04:42;7.03;;;6.43;;
15408;SDS011;7803;48.130;13.788;2023-02-23T06:07:44;7.40;;;6.70;;
15408;SDS011;7803;48.130;13.788;2023-02-23T06:10:47;6.85;;;6.25;;
15408;SDS011;7803;48.130;13.788;2023-02-23T06:13:49;7.40;;;6.70;;
15408;SDS011;7803;48.130;13.788;2023-02-23T06:16:51;7.18;;;6.47;;
15408;SDS011;7803;48.130;13.788;2023-02-23T06:19:54;7.45;;;6.75;;
15408;SDS011;7803;48.130;13.788;2023-02-23T06:22:58;7.28;;;6.68;;
15408;SDS011;7803;48.130;13.788;2023-02-23T06:26:00;7.25;;;6.55;;
15408;SDS011;7803;48.130;13.788;2023-02-23T06:29:02;7.63;;;6.82;;
15408;SDS011;7803;48.130;13.788;2023-02-23T06:32:04;7.47;;;6.78;;
15408;SDS011;7803;48.130;13.788;2023-02-23T06:35:08;7.28;;;6.57;;
15408;SDS011;7803;48.130;13.788;2023-02-23T06:38:10;7.07;;;6.40;;
15408;SDS011;7803;48.130;13.788;2023-02-23T06:41:12;7.00;;;6.30;;
15408;SDS011;7803;48.130;13.788;2023-02-23T06:44:14;7.07;;;6.38;;
15408;SDS011;7803;48.130;13.788;2023-02-23T06:47:16;6.50;;;5.90;;
15408;SDS011;7803;48.130;13.788;2023-02-23T06:50:20;7.07;;;6.38;;
15408;SDS011;7803;48.130;13.788;2023-02-23T06:53:22;7.20;;;6.50;;
15408;SDS011;7803;48.130;13.788;2023-02-23T06:56:24;6.97;;;6.38;;
15408;SDS011;7803;48.130;13.788;2023-02-23T06:59:26;7.47;;;6.50;;
15408;SDS011;7803;48.130;13.788;2023-02-23T07:02:29;8.15;;;6.93;;
15408;SDS011;7803;48.130;13.788;2023-02-23T07:05:33;7.18;;;6.47;;
15408;SDS011;7803;48.130;13.788;2023-02-23T07:08:35;6.82;;;6.13;;
15408;SDS011;7803;48.130;13.788;2023-02-23T07:11:38;6.95;;;6.32;;
15408;SDS011;7803;48.130;13.788;2023-02-23T07:14:43;7.22;;;6.30;;
15408;SDS011;7803;48.130;13.788;2023-02-23T07:17:45;7.35;;;6.55;;
15408;SDS011;7803;48.130;13.788;2023-02-23T07:20:49;6.82;;;6.13;;
15408;SDS011;7803;48.130;13.788;2023-02-23T07:23:52;7.40;;;6.70;;
15408;SDS011;7803;48.130;13.788;2023-02-23T07:26:54;6.65;;;6.05;;
15408;SDS011;7803;48.130;13.788;2023-02-23T07:29:56;6.78;;;6.07;;
15408;SDS011;7803;48.130;13.788;2023-02-23T07:32:58;6.65;;;6.05;;
15408;SDS011;7803;48.130;13.788;2023-02-23T07:36:01;6.20;;;5.60;;
15408;SDS011;7803;48.130;13.788;2023-02-23T07:39:03;6.53;;;5.93;;
15408;SDS011;7803;48.130;13.788;2023-02-23T07:42:06;6.55;;;5.85;;
15408;SDS011;7803;48.130;13.788;2023-02-23T07:45:08;6.45;;;5.72;;
15408;SDS011;7803;48.130;13.788;2023-02-23T07:48:10;6.25;;;5.65;;
15408;SDS011;7803;48.130;13.788;2023-02-23T07:51:14;6.85;;;6.15;;
15408;SDS011;7803;48.130;13.788;2023-02-23T07:54:16;6.10;;;5.50;;
15408;SDS011;7803;48.130;13.788;2023-02-23T07:57:19;5.68;;;5.18;;
15408;SDS011;7803;48.130;13.788;2023-02-23T08:00:21;6.55;;;5.95;;
15408;SDS011;7803;48.130;13.788;2023-02-23T08:03:24;6.05;;;5.45;;
15408;SDS011;7803;48.130;13.788;2023-02-23T08:06:28;6.35;;;5.75;;
15408;SDS011;7803;48.130;13.788;2023-02-23T08:09:31;6.03;;;5.47;;
15408;SDS011;7803;48.130;13.788;2023-02-23T08:12:34;6.20;;;5.57;;
15408;SDS011;7803;48.130;13.788;2023-02-23T08:15:36;6.10;;;5.50;;
15408;SDS011;7803;48.130;13.788;2023-02-23T08:18:38;6.38;;;5.65;;
15408;SDS011;7803;48.130;13.788;2023-02-23T08:21:41;6.03;;;5.43;;
15408;SDS011;7803;48.130;13.788;2023-02-23T08:24:43;5.70;;;5.20;;
15408;SDS011;7803;48.130;13.788;2023-02-23T08:27:46;5.80;;;5.30;;
15408;SDS011;7803;48.130;13.788;2023-02-23T08:30:51;5.60;;;5.10;;
15408;SDS011;7803;48.130;13.788;2023-02-23T08:33:53;6.20;;;5.60;;
15408;SDS011;7803;48.130;13.788;2023-02-23T08:36:57;5.47;;;4.97;;
15408;SDS011;7803;48.130;13.788;2023-02-23T08:39:59;5.70;;;5.20;;
15408;SDS011;7803;48.130;13.788;2023-02-23T08:43:01;5.75;;;5.15;;
15408;SDS011;7803;48.130;13.788;2023-02-23T08:46:03;5.35;;;4.85;;
15408;SDS011;7803;48.130;13.788;2023-02-23T08:49:06;5.50;;;5.00;;
15408;SDS011;7803;48.130;13.788;2023-02-23T08:52:11;5.30;;;4.82;;
15408;SDS011;7803;48.130;13.788;2023-02-23T08:55:13;5.70;;;5.20;;
15408;SDS011;7803;48.130;13.788;2023-02-23T08:58:17;6.00;;;5.40;;
15408;SDS011;7803;48.130;13.788;2023-02-23T09:01:19;6.38;;;5.32;;
15408;SDS011;7803;48.130;13.788;2023-02-23T09:04:22;5.68;;;5.05;;
15408;SDS011;7803;48.130;13.788;2023-02-23T09:07:25;5.53;;;5.03;;
15408;SDS011;7803;48.130;13.788;2023-02-23T09:10:27;5.47;;;4.97;;
15408;SDS011;7803;48.130;13.788;2023-02-23T09:13:29;5.53;;;4.90;;
15408;SDS011;7803;48.130;13.788;2023-02-23T09:16:31;5.57;;;5.07;;
15408;SDS011;7803;48.130;13.788;2023-02-23T09:19:34;5.63;;;5.00;;
15408;SDS011;7803;48.130;13.788;2023-02-23T09:22:38;5.82;;;4.75;;
15408;SDS011;7803;48.130;13.788;2023-02-23T09:25:41;5.30;;;4.80;;
15408;SDS011;7803;48.130;13.788;2023-02-23T09:28:44;5.40;;;4.90;;
15408;SDS011;7803;48.130;13.788;2023-02-23T09:31:46;5.38;;;4.88;;
15408;SDS011;7803;48.130;13.788;2023-02-23T09:34:50;5.32;;;4.82;;
15408;SDS011;7803;48.130;13.788;2023-02-23T09:37:54;5.32;;;4.80;;
15408;SDS011;7803;48.130;13.788;2023-02-23T09:40:56;4.93;;;4.43;;
15408;SDS011;7803;48.130;13.788;2023-02-23T09:43:59;5.10;;;4.68;;
15408;SDS011;7803;48.130;13.788;2023-02-23T09:47:08;5.15;;;4.63;;
15408;SDS011;7803;48.130;13.788;2023-02-23T09:50:22;5.18;;;4.68;;
15408;SDS011;7803;48.130;13.788;2023-02-23T09:53:31;5.20;;;4.70;;
15408;SDS011;7803;48.130;13.788;2023-02-23T09:56:37;5.78;;;4.82;;
15408;SDS011;7803;48.130;13.788;2023-02-23T09:59:42;4.72;;;4.32;;
15408;SDS011;7803;48.130;13.788;2023-02-23T10:02:54;4.95;;;4.50;;
15408;SDS011;7803;48.130;13.788;2023-02-23T10:06:10;5.00;;;4.50;;
15408;SDS011;7803;48.130;13.788;2023-02-23T10:09:20;4.82;;;4.43;;
15408;SDS011;7803;48.130;13.788;2023-02-23T10:12:29;4.90;;;4.50;;
15408;SDS011;7803;48.130;13.788;2023-02-23T10:15:36;4.95;;;4.53;;
15408;SDS011;7803;48.130;13.788;2023-02-23T10:18:45;5.18;;;4.63;;
15408;SDS011;7803;48.130;13.788;2023-02-23T10:21:55;5.25;;;4.75;;
15408;SDS011;7803;48.130;13.788;2023-02-23T10:25:05;5.10;;;4.30;;
15408;SDS011;7803;48.130;13.788;2023-02-23T10:28:12;4.78;;;4.35;;
15408;SDS011;7803;48.130;13.788;2023-02-23T10:31:26;4.63;;;4.22;;
15408;SDS011;7803;48.130;13.788;2023-02-23T10:34:33;5.00;;;4.50;;
15408;SDS011;7803;48.130;13.788;2023-02-23T10:37:37;4.50;;;4.10;;
15408;SDS011;7803;48.130;13.788;2023-02-23T10:40:40;4.65;;;4.22;;
15408;SDS011;7803;48.130;13.788;2023-02-23T10:43:44;5.20;;;4.70;;
15408;SDS011;7803;48.130;13.788;2023-02-23T10:46:48;5.00;;;4.50;;
15408;SDS011;7803;48.130;13.788;2023-02-23T10:49:55;5.00;;;4.47;;
15408;SDS011;7803;48.130;13.788;2023-02-23T10:52:59;5.55;;;4.63;;
15408;SDS011;7803;48.130;13.788;2023-02-23T10:56:07;4.80;;;4.28;;
15408;SDS011;7803;48.130;13.788;2023-02-23T10:59:14;5.05;;;4.30;;
15408;SDS011;7803;48.130;13.788;2023-02-23T11:02:21;4.45;;;4.05;;
15408;SDS011;7803;48.130;13.788;2023-02-23T11:05:29;4.25;;;3.85;;
15408;SDS011;7803;48.130;13.788;2023-02-23T11:08:36;4.43;;;4.03;;
15408;SDS011;7803;48.130;13.788;2023-02-23T11:11:40;4.45;;;4.05;;
15408;SDS011;7803;48.130;13.788;2023-02-23T11:14:55;4.22;;;3.83;;
15408;SDS011;7803;48.130;13.788;2023-02-23T11:17:59;4.80;;;4.40;;
15408;SDS011;7803;48.130;13.788;2023-02-23T11:21:02;4.38;;;3.97;;
15408;SDS011;7803;48.130;13.788;2023-02-23T11:24:13;5.00;;;4.43;;
15408;SDS011;7803;48.130;13.788;2023-02-23T11:27:21;4.55;;;4.07;;
15408;SDS011;7803;48.130;13.788;2023-02-23T11:30:27;4.38;;;3.60;;
15408;SDS011;7803;48.130;13.788;2023-02-23T11:33:35;4.30;;;3.90;;
15408;SDS011;7803;48.130;13.788;2023-02-23T11:36:40;4.50;;;4.10;;
15408;SDS011;7803;48.130;13.788;2023-02-23T11:39:49;3.90;;;3.50;;
15408;SDS011;7803;48.130;13.788;2023-02-23T11:42:54;4.07;;;3.67;;
15408;SDS011;7803;48.130;13.788;2023-02-23T11:45:58;3.90;;;3.60;;
15408;SDS011;7803;48.130;13.788;2023-02-23T11:49:03;4.40;;;4.00;;
15408;SDS011;7803;48.130;13.788;2023-02-23T11:52:10;4.00;;;3.60;;
15408;SDS011;7803;48.130;13.788;2023-02-23T11:55:16;4.18;;;3.78;;
15408;SDS011;7803;48.130;13.788;2023-02-23T11:58:22;4.05;;;3.65;;
15408;SDS011;7803;48.130;13.788;2023-02-23T12:01:34;4.00;;;3.65;;
15408;SDS011;7803;48.130;13.788;2023-02-23T12:04:43;4.03;;;3.63;;
15408;SDS011;7803;48.130;13.788;2023-02-23T12:07:49;4.00;;;3.53;;
15408;SDS011;7803;48.130;13.788;2023-02-23T12:10:56;4.10;;;3.70;;
15408;SDS011;7803;48.130;13.788;2023-02-23T12:14:02;4.20;;;3.80;;
15408;SDS011;7803;48.130;13.788;2023-02-23T12:17:12;4.47;;;3.88;;
15408;SDS011;7803;48.130;13.788;2023-02-23T12:20:19;3.88;;;3.58;;
15408;SDS011;7803;48.130;13.788;2023-02-23T12:23:26;4.05;;;3.75;;
15408;SDS011;7803;48.130;13.788;2023-02-23T12:26:34;4.20;;;3.80;;
15408;SDS011;7803;48.130;13.788;2023-02-23T12:29:52;3.58;;;3.28;;
15408;SDS011;7803;48.130;13.788;2023-02-23T12:33:00;3.88;;;3.58;;
15408;SDS011;7803;48.130;13.788;2023-02-23T12:36:10;3.90;;;3.60;;
15408;SDS011;7803;48.130;13.788;2023-02-23T12:39:20;3.70;;;3.40;;
15408;SDS011;7803;48.130;13.788;2023-02-23T12:42:33;3.85;;;3.55;;
15408;SDS011;7803;48.130;13.788;2023-02-23T12:45:42;4.10;;;3.70;;
15408;SDS011;7803;48.130;13.788;2023-02-23T12:48:51;4.20;;;3.80;;
15408;SDS011;7803;48.130;13.788;2023-02-23T12:52:03;4.03;;;3.63;;
15408;SDS011;7803;48.130;13.788;2023-02-23T12:55:13;4.07;;;3.70;;
15408;SDS011;7803;48.130;13.788;2023-02-23T12:58:22;3.70;;;3.40;;
15408;SDS011;7803;48.130;13.788;2023-02-23T13:01:32;3.55;;;3.30;;
15408;SDS011;7803;48.130;13.788;2023-02-23T13:08:17;4.93;;;4.10;;
15408;SDS011;7803;48.130;13.788;2023-02-23T13:11:28;4.03;;;3.63;;
15408;SDS011;7803;48.130;13.788;2023-02-23T13:14:48;3.75;;;3.40;;
15408;SDS011;7803;48.130;13.788;2023-02-23T13:18:00;3.83;;;3.50;;
15408;SDS011;7803;48.130;13.788;2023-02-23T13:21:07;3.67;;;3.38;;
15408;SDS011;7803;48.130;13.788;2023-02-23T13:24:16;4.30;;;3.90;;
15408;SDS011;7803;48.130;13.788;2023-02-23T13:27:21;4.07;;;3.45;;
15408;SDS011;7803;48.130;13.788;2023-02-23T13:30:28;4.05;;;3.65;;
15408;SDS011;7803;48.130;13.788;2023-02-23T13:33:33;4.18;;;3.78;;
15408;SDS011;7803;48.130;13.788;2023-02-23T13:36:36;3.88;;;3.58;;
15408;SDS011;7803;48.130;13.788;2023-02-23T13:39:46;3.40;;;3.10;;
15408;SDS011;7803;48.130;13.788;2023-02-23T13:42:59;3.75;;;3.45;;
15408;SDS011;7803;48.130;13.788;2023-02-23T13:46:18;3.72;;;3.42;;
15408;SDS011;7803;48.130;13.788;2023-02-23T13:49:33;3.42;;;3.13;;
15408;SDS011;7803;48.130;13.788;2023-02-23T13:52:39;3.53;;;3.22;;
15408;SDS011;7803;48.130;13.788;2023-02-23T13:55:44;3.97;;;3.58;;
15408;SDS011;7803;48.130;13.788;2023-02-23T13:58:51;3.65;;;3.35;;
15408;SDS011;7803;48.130;13.788;2023-02-23T14:01:56;3.90;;;3.60;;
15408;SDS011;7803;48.130;13.788;2023-02-23T14:05:05;3.40;;;3.10;;
15408;SDS011;7803;48.130;13.788;2023-02-23T14:08:19;3.92;;;3.40;;
15408;SDS011;7803;48.130;13.788;2023-02-23T14:11:27;4.05;;;3.38;;
15408;SDS011;7803;48.130;13.788;2023-02-23T14:14:38;4.40;;;3.97;;
15408;SDS011;7803;48.130;13.788;2023-02-23T14:17:53;3.55;;;3.25;;
15408;SDS011;7803;48.130;13.788;2023-02-23T14:21:00;3.85;;;3.42;;
15408;SDS011;7803;48.130;13.788;2023-02-23T14:24:15;3.88;;;3.47;;
15408;SDS011;7803;48.130;13.788;2023-02-23T14:27:21;3.60;;;3.30;;
15408;SDS011;7803;48.130;13.788;2023-02-23T14:30:25;3.80;;;3.50;;
15408;SDS011;7803;48.130;13.788;2023-02-23T14:33:35;4.43;;;4.03;;
15408;SDS011;7803;48.130;13.788;2023-02-23T14:36:50;3.50;;;3.20;;
15408;SDS011;7803;48.130;13.788;2023-02-23T14:39:56;3.70;;;3.40;;
15408;SDS011;7803;48.130;13.788;2023-02-23T14:43:28;3.95;;;3.65;;
15408;SDS011;7803;48.130;13.788;2023-02-23T14:46:31;3.50;;;3.20;;
15408;SDS011;7803;48.130;13.788;2023-02-23T14:49:37;3.60;;;3.30;;
15408;SDS011;7803;48.130;13.788;2023-02-23T14:52:46;3.40;;;3.10;;
15408;SDS011;7803;48.130;13.788;2023-02-23T14:55:48;3.40;;;3.10;;
15408;SDS011;7803;48.130;13.788;2023-02-23T14:58:51;3.50;;;3.20;;
15408;SDS011;7803;48.130;13.788;2023-02-23T15:01:55;3.60;;;3.30;;
15408;SDS011;7803;48.130;13.788;2023-02-23T15:05:12;3.58;;;3.28;;
15408;SDS011;7803;48.130;13.788;2023-02-23T15:08:17;4.03;;;3.60;;
15408;SDS011;7803;48.130;13.788;2023-02-23T15:11:22;3.88;;;3.45;;
15408;SDS011;7803;48.130;13.788;2023-02-23T15:14:24;3.50;;;3.20;;
15408;SDS011;7803;48.130;13.788;2023-02-23T15:17:29;3.55;;;3.00;;
15408;SDS011;7803;48.130;13.788;2023-02-23T15:20:33;3.63;;;3.33;;
15408;SDS011;7803;48.130;13.788;2023-02-23T15:23:36;3.72;;;3.42;;
15408;SDS011;7803;48.130;13.788;2023-02-23T15:26:39;3.45;;;3.15;;
15408;SDS011;7803;48.130;13.788;2023-02-23T15:29:42;3.22;;;3.00;;
15408;SDS011;7803;48.130;13.788;2023-02-23T15:32:44;3.55;;;3.25;;
15408;SDS011;7803;48.130;13.788;2023-02-23T15:35:48;3.20;;;3.00;;
15408;SDS011;7803;48.130;13.788;2023-02-23T15:38:55;3.65;;;3.35;;
15408;SDS011;7803;48.130;13.788;2023-02-23T15:42:01;3.50;;;3.20;;
15408;SDS011;7803;48.130;13.788;2023-02-23T15:45:10;3.60;;;3.30;;
15408;SDS011;7803;48.130;13.788;2023-02-23T15:48:17;3.65;;;3.35;;
15408;SDS011;7803;48.130;13.788;2023-02-23T15:51:25;3.33;;;3.03;;
15408;SDS011;7803;48.130;13.788;2023-02-23T15:54:35;4.07;;;3.67;;
15408;SDS011;7803;48.130;13.788;2023-02-23T15:57:44;3.78;;;3.47;;
15408;SDS011;7803;48.130;13.788;2023-02-23T16:00:49;3.83;;;3.53;;
15408;SDS011;7803;48.130;13.788;2023-02-23T16:03:58;3.70;;;3.40;;
15408;SDS011;7803;48.130;13.788;2023-02-23T16:07:06;3.42;;;3.13;;
15408;SDS011;7803;48.130;13.788;2023-02-23T16:10:19;3.53;;;3.22;;
15408;SDS011;7803;48.130;13.788;2023-02-23T16:13:23;3.45;;;3.15;;
15408;SDS011;7803;48.130;13.788;2023-02-23T16:16:26;3.70;;;3.40;;
15408;SDS011;7803;48.130;13.788;2023-02-23T16:19:28;3.50;;;3.20;;
15408;SDS011;7803;48.130;13.788;2023-02-23T16:22:31;3.60;;;3.30;;
15408;SDS011;7803;48.130;13.788;2023-02-23T16:25:35;3.42;;;3.10;;
15408;SDS011;7803;48.130;13.788;2023-02-23T16:28:40;3.47;;;3.17;;
15408;SDS011;7803;48.130;13.788;2023-02-23T16:31:44;3.90;;;3.50;;
15408;SDS011;7803;48.130;13.788;2023-02-23T16:34:48;3.80;;;3.50;;
15408;SDS011;7803;48.130;13.788;2023-02-23T16:37:56;3.60;;;3.30;;
15408;SDS011;7803;48.130;13.788;2023-02-23T16:41:03;3.60;;;3.30;;
15408;SDS011;7803;48.130;13.788;2023-02-23T16:44:10;3.30;;;3.00;;
15408;SDS011;7803;48.130;13.788;2023-02-23T16:50:46;3.40;;;3.10;;
15408;SDS011;7803;48.130;13.788;2023-02-23T16:53:50;3.42;;;3.10;;
15408;SDS011;7803;48.130;13.788;2023-02-23T16:56:53;3.40;;;3.10;;
15408;SDS011;7803;48.130;13.788;2023-02-23T16:59:56;3.17;;;2.83;;
15408;SDS011;7803;48.130;13.788;2023-02-23T17:02:59;3.42;;;3.13;;
15408;SDS011;7803;48.130;13.788;2023-02-23T17:06:04;3.67;;;3.38;;
15408;SDS011;7803;48.130;13.788;2023-02-23T17:09:07;3.58;;;3.28;;
15408;SDS011;7803;48.130;13.788;2023-02-23T17:12:11;5.43;;;4.35;;
15408;SDS011;7803;48.130;13.788;2023-02-23T17:15:17;3.70;;;3.40;;
15408;SDS011;7803;48.130;13.788;2023-02-23T17:18:21;4.05;;;3.65;;
15408;SDS011;7803;48.130;13.788;2023-02-23T17:21:26;3.75;;;3.45;;
15408;SDS011;7803;48.130;13.788;2023-02-23T17:24:28;3.85;;;3.55;;
15408;SDS011;7803;48.130;13.788;2023-02-23T17:27:33;3.70;;;3.40;;
15408;SDS011;7803;48.130;13.788;2023-02-23T17:30:35;3.60;;;3.30;;
15408;SDS011;7803;48.130;13.788;2023-02-23T17:33:39;3.30;;;3.00;;
15408;SDS011;7803;48.130;13.788;2023-02-23T17:36:42;3.90;;;3.60;;
15408;SDS011;7803;48.130;13.788;2023-02-23T17:39:46;4.13;;;3.72;;
15408;SDS011;7803;48.130;13.788;2023-02-23T17:42:50;3.83;;;3.50;;
15408;SDS011;7803;48.130;13.788;2023-02-23T17:45:53;3.80;;;3.50;;
15408;SDS011;7803;48.130;13.788;2023-02-23T17:48:56;3.85;;;3.55;;
15408;SDS011;7803;48.130;13.788;2023-02-23T17:51:59;3.70;;;3.40;;
15408;SDS011;7803;48.130;13.788;2023-02-23T17:55:02;3.83;;;3.35;;
15408;SDS011;7803;48.130;13.788;2023-02-23T17:58:07;3.53;;;3.22;;
15408;SDS011;7803;48.130;13.788;2023-02-23T18:01:13;4.00;;;3.60;;
15408;SDS011;7803;48.130;13.788;2023-02-23T18:04:16;3.83;;;3.53;;
15408;SDS011;7803;48.130;13.788;2023-02-23T18:07:20;3.80;;;3.40;;
15408;SDS011;7803;48.130;13.788;2023-02-23T18:10:23;3.60;;;3.30;;
15408;SDS011;7803;48.130;13.788;2023-02-23T18:13:27;3.72;;;3.42;;
15408;SDS011;7803;48.130;13.788;2023-02-23T18:16:32;3.88;;;3.58;;
15408;SDS011;7803;48.130;13.788;2023-02-23T18:19:35;4.10;;;3.70;;
15408;SDS011;7803;48.130;13.788;2023-02-23T18:22:39;4.13;;;3.70;;
15408;SDS011;7803;48.130;13.788;2023-02-23T18:25:42;3.75;;;3.45;;
15408;SDS011;7803;48.130;13.788;2023-02-23T18:28:47;3.70;;;3.40;;
15408;SDS011;7803;48.130;13.788;2023-02-23T18:31:50;3.80;;;3.50;;
15408;SDS011;7803;48.130;13.788;2023-02-23T18:34:54;3.30;;;3.10;;
15408;SDS011;7803;48.130;13.788;2023-02-23T18:37:58;4.03;;;3.70;;
15408;SDS011;7803;48.130;13.788;2023-02-23T18:41:01;3.55;;;3.25;;
15408;SDS011;7803;48.130;13.788;2023-02-23T18:44:10;4.03;;;3.63;;
15408;SDS011;7803;48.130;13.788;2023-02-23T18:47:14;3.50;;;3.20;;
15408;SDS011;7803;48.130;13.788;2023-02-23T18:50:22;4.20;;;3.80;;
15408;SDS011;7803;48.130;13.788;2023-02-23T18:53:27;4.15;;;3.75;;
15408;SDS011;7803;48.130;13.788;2023-02-23T18:56:30;3.88;;;3.58;;
15408;SDS011;7803;48.130;13.788;2023-02-23T18:59:34;3.60;;;3.30;;
15408;SDS011;7803;48.130;13.788;2023-02-23T19:02:38;3.88;;;3.58;;
15408;SDS011;7803;48.130;13.788;2023-02-23T19:05:42;4.93;;;4.20;;
15408;SDS011;7803;48.130;13.788;2023-02-23T19:08:49;3.75;;;3.45;;
15408;SDS011;7803;48.130;13.788;2023-02-23T19:11:54;4.10;;;3.70;;